createdAt,value
2023-04-28T00:00:15.153Z,5.85
2023-04-28T00:02:43.177Z,5.89
2023-04-28T00:05:12.536Z,5.91
2023-04-28T00:07:40.468Z,5.93
2023-04-28T00:10:09.834Z,5.93
2023-04-28T00:12:38.020Z,5.89
2023-04-28T00:15:06.801Z,5.88
2023-04-28T00:17:36.488Z,5.89
2023-04-28T00:20:05.543Z,5.88
2023-04-28T00:22:33.400Z,5.86
2023-04-28T00:25:01.602Z,5.90
2023-04-28T00:27:29.559Z,5.92
2023-04-28T00:29:57.727Z,5.93
2023-04-28T00:32:25.749Z,5.88
2023-04-28T00:34:55.843Z,5.84
2023-04-28T00:37:23.814Z,5.76
2023-04-28T00:39:56.084Z,5.44
2023-04-28T00:42:24.585Z,5.34
2023-04-28T00:44:52.457Z,5.42
2023-04-28T00:47:21.341Z,5.54
2023-04-28T00:49:50.381Z,5.56
2023-04-28T00:52:19.600Z,5.58
2023-04-28T00:54:48.632Z,5.62
2023-04-28T00:57:16.456Z,5.55
2023-04-28T00:59:44.302Z,5.56
2023-04-28T01:02:17.418Z,5.50
2023-04-28T01:04:46.792Z,5.55
2023-04-28T01:07:16.238Z,5.44
2023-04-28T01:09:47.845Z,5.47
2023-04-28T01:12:19.022Z,5.47
2023-04-28T01:14:50.584Z,5.48
2023-04-28T01:17:18.627Z,5.51
2023-04-28T01:19:47.192Z,5.50
2023-04-28T01:22:16.572Z,5.42
2023-04-28T01:24:46.647Z,5.48
2023-04-28T01:27:15.578Z,5.48
2023-04-28T01:29:43.491Z,5.50
2023-04-28T01:32:11.364Z,5.34
2023-04-28T01:34:40.946Z,5.24
2023-04-28T01:37:08.841Z,5.12
2023-04-28T01:39:38.575Z,5.18
2023-04-28T01:42:08.023Z,5.02
2023-04-28T01:44:35.994Z,4.93
2023-04-28T01:47:04.058Z,4.88
2023-04-28T01:49:32.322Z,4.74
2023-04-28T01:52:00.724Z,4.77
2023-04-28T01:54:28.716Z,4.79
2023-04-28T01:56:56.698Z,4.87
2023-04-28T01:59:27.727Z,4.92
2023-04-28T02:01:55.772Z,4.97
2023-04-28T02:04:23.888Z,4.99
2023-04-28T02:06:51.937Z,5.01
2023-04-28T02:09:19.870Z,5.01
2023-04-28T02:11:47.832Z,4.99
2023-04-28T02:14:15.923Z,5.00
2023-04-28T02:16:45.938Z,4.86
2023-04-28T02:19:13.853Z,4.86
2023-04-28T02:21:42.952Z,4.73
2023-04-28T02:24:11.573Z,4.44
2023-04-28T02:26:39.388Z,4.46
2023-04-28T02:29:07.501Z,4.61
2023-04-28T02:31:35.417Z,4.70
2023-04-28T02:34:04.750Z,4.71
2023-04-28T02:36:35.181Z,4.55
2023-04-28T02:39:03.037Z,4.55
2023-04-28T02:41:31.726Z,4.66
2023-04-28T02:43:59.788Z,4.68
2023-04-28T02:46:27.835Z,4.71
2023-04-28T02:48:56.502Z,4.72
2023-04-28T02:51:25.882Z,4.72
2023-04-28T02:53:53.800Z,4.68
2023-04-28T02:56:22.038Z,4.70
2023-04-28T02:58:50.022Z,4.69
2023-04-28T03:01:17.947Z,4.68
2023-04-28T03:03:46.299Z,4.66
2023-04-28T03:06:14.411Z,4.64
2023-04-28T03:08:43.700Z,4.65
2023-04-28T03:11:12.177Z,4.58
2023-04-28T03:13:40.046Z,4.63
2023-04-28T03:16:08.999Z,4.60
2023-04-28T03:18:37.252Z,4.58
2023-04-28T03:21:05.287Z,4.56
2023-04-28T03:23:33.172Z,4.57
2023-04-28T03:26:02.661Z,4.56
2023-04-28T03:28:30.672Z,4.53
2023-04-28T03:31:00.484Z,4.50
2023-04-28T03:33:28.407Z,4.48
2023-04-28T03:35:56.689Z,4.46
2023-04-28T03:38:25.050Z,4.44
2023-04-28T03:40:53.240Z,4.42
2023-04-28T03:43:40.770Z,4.46
2023-04-28T03:46:25.002Z,4.41
2023-04-28T03:48:53.533Z,4.42
2023-04-28T03:51:21.421Z,4.43
2023-04-28T03:53:49.338Z,4.40
2023-04-28T03:56:17.213Z,4.39
2023-04-28T03:58:46.602Z,4.37
2023-04-28T04:01:14.603Z,4.36
2023-04-28T04:03:42.682Z,4.35
2023-04-28T04:06:10.852Z,4.35
2023-04-28T04:08:38.806Z,4.36
2023-04-28T04:11:07.731Z,4.35
2023-04-28T04:13:36.428Z,4.37
2023-04-28T04:16:10.271Z,4.40
2023-04-28T04:18:38.423Z,4.36
2023-04-28T04:21:29.529Z,4.36
2023-04-28T04:23:57.500Z,4.37
2023-04-28T04:26:25.728Z,4.37
2023-04-28T04:28:53.758Z,4.35
2023-04-28T04:31:23.085Z,4.25
2023-04-28T04:33:52.110Z,4.08
2023-04-28T04:36:21.887Z,4.25
2023-04-28T04:38:53.252Z,4.33
2023-04-28T04:41:23.204Z,4.44
2023-04-28T04:43:58.911Z,4.47
2023-04-28T04:46:33.388Z,4.63
2023-04-28T04:49:01.785Z,4.73
2023-04-28T04:51:29.802Z,4.82
2023-04-28T04:53:57.894Z,4.72
2023-04-28T04:56:26.418Z,4.81
2023-04-28T04:58:55.286Z,4.94
2023-04-28T05:01:39.087Z,5.08
2023-04-28T05:04:07.431Z,5.14
2023-04-28T05:06:35.622Z,5.22
2023-04-28T05:09:04.471Z,5.24
2023-04-28T05:11:34.228Z,5.25
2023-04-28T05:14:02.197Z,5.29
2023-04-28T05:16:30.344Z,5.36
2023-04-28T05:19:05.802Z,5.43
2023-04-28T05:21:33.737Z,5.52
2023-04-28T05:24:01.887Z,5.63
2023-04-28T05:26:30.972Z,5.70
2023-04-28T05:29:04.490Z,5.79
2023-04-28T05:31:32.547Z,5.82
2023-04-28T05:34:01.032Z,5.89
2023-04-28T05:36:30.302Z,5.96
2023-04-28T05:38:58.888Z,6.03
2023-04-28T05:41:26.808Z,6.27
2023-04-28T05:43:56.033Z,6.37
2023-04-28T05:46:30.668Z,6.41
2023-04-28T05:49:00.665Z,6.40
2023-04-28T05:51:34.788Z,6.57
2023-04-28T05:54:03.487Z,6.56
2023-04-28T05:56:33.036Z,6.65
2023-04-28T05:59:04.319Z,6.68
2023-04-28T06:01:32.877Z,6.68
2023-04-28T06:04:01.656Z,6.76
2023-04-28T06:06:30.041Z,6.85
2023-04-28T06:09:01.925Z,6.86
2023-04-28T06:11:31.632Z,6.83
2023-04-28T06:14:00.830Z,6.87
2023-04-28T06:16:30.675Z,6.91
2023-04-28T06:18:58.874Z,6.96
2023-04-28T06:21:27.450Z,6.99
2023-04-28T06:23:58.144Z,7.07
2023-04-28T06:26:27.699Z,7.26
2023-04-28T06:28:55.879Z,7.41
2023-04-28T06:31:23.856Z,7.61
2023-04-28T06:33:54.346Z,7.67
2023-04-28T06:36:24.035Z,7.71
2023-04-28T06:38:52.420Z,7.87
2023-04-28T06:41:20.311Z,8.10
2023-04-28T06:43:52.706Z,8.28
2023-04-28T06:46:27.094Z,8.36
2023-04-28T06:48:55.551Z,8.43
2023-04-28T06:51:23.781Z,8.54
2023-04-28T06:53:53.382Z,8.69
2023-04-28T06:56:21.651Z,8.78
2023-04-28T06:58:49.950Z,8.81
2023-04-28T07:01:19.535Z,8.77
2023-04-28T07:03:47.733Z,8.92
2023-04-28T07:06:18.549Z,8.98
2023-04-28T07:08:46.487Z,9.08
2023-04-28T07:11:14.348Z,9.16
2023-04-28T07:13:42.440Z,9.37
2023-04-28T07:16:12.416Z,9.36
2023-04-28T07:18:41.928Z,9.50
2023-04-28T07:21:10.213Z,9.62
2023-04-28T07:23:40.379Z,9.84
2023-04-28T07:26:08.369Z,9.90
2023-04-28T07:28:36.279Z,9.93
2023-04-28T07:31:04.180Z,10.16
2023-04-28T07:33:32.551Z,10.32
2023-04-28T07:36:01.871Z,10.43
2023-04-28T07:38:29.965Z,10.37
2023-04-28T07:40:58.453Z,10.54
2023-04-28T07:43:26.488Z,10.85
2023-04-28T07:45:55.770Z,11.11
2023-04-28T07:48:23.747Z,11.12
2023-04-28T07:50:51.799Z,11.26
2023-04-28T07:53:21.211Z,11.37
2023-04-28T07:55:49.185Z,11.50
2023-04-28T07:58:17.248Z,11.85
2023-04-28T08:00:45.775Z,12.05
2023-04-28T08:03:15.539Z,12.09
2023-04-28T08:05:45.118Z,12.44
2023-04-28T08:08:13.205Z,12.76
2023-04-28T08:10:43.822Z,12.68
2023-04-28T08:13:13.097Z,12.89
2023-04-28T08:15:42.929Z,13.08
2023-04-28T08:18:11.073Z,13.19
2023-04-28T08:20:39.299Z,12.89
2023-04-28T08:23:07.185Z,12.87
2023-04-28T08:25:35.368Z,13.59
2023-04-28T08:28:06.442Z,13.81
2023-04-28T08:30:34.973Z,13.60
2023-04-28T08:33:02.991Z,14.03
2023-04-28T08:35:31.586Z,14.16
2023-04-28T08:37:59.509Z,13.94
2023-04-28T08:40:29.749Z,14.03
2023-04-28T08:42:57.600Z,14.24
2023-04-28T08:45:29.484Z,14.45
2023-04-28T08:47:57.995Z,14.44
2023-04-28T08:50:27.578Z,14.57
2023-04-28T08:52:56.781Z,14.27
2023-04-28T08:55:24.944Z,14.42
2023-04-28T08:57:52.861Z,14.68
2023-04-28T09:00:20.708Z,14.77
2023-04-28T09:02:50.096Z,13.91
2023-04-28T09:05:18.242Z,13.50
2023-04-28T09:07:47.882Z,13.10
2023-04-28T09:10:21.157Z,13.68
2023-04-28T09:12:50.028Z,13.74
2023-04-28T09:15:30.602Z,14.21
2023-04-28T09:18:01.983Z,14.76
2023-04-28T09:20:30.995Z,15.32
2023-04-28T09:23:15.190Z,15.36
2023-04-28T09:25:57.597Z,15.91
2023-04-28T09:28:25.940Z,15.92
2023-04-28T09:30:54.369Z,16.00
2023-04-28T09:33:23.918Z,15.17
2023-04-28T09:35:52.949Z,15.45
2023-04-28T09:38:22.061Z,15.44
2023-04-28T09:40:55.144Z,16.03
2023-04-28T09:43:31.238Z,15.88
2023-04-28T09:46:00.785Z,15.73
2023-04-28T09:48:34.426Z,15.93
2023-04-28T09:51:03.401Z,15.22
2023-04-28T09:53:31.923Z,14.91
2023-04-28T09:56:01.302Z,14.41
2023-04-28T09:58:30.266Z,14.14
2023-04-28T10:00:59.553Z,14.74
2023-04-28T10:03:29.854Z,15.30
2023-04-28T10:05:59.973Z,15.51
2023-04-28T10:08:28.333Z,15.42
2023-04-28T10:10:57.879Z,15.65
2023-04-28T10:13:26.772Z,15.34
2023-04-28T10:15:58.464Z,15.13
2023-04-28T10:18:27.460Z,16.08
2023-04-28T10:21:01.184Z,15.96
2023-04-28T10:23:48.106Z,15.76
2023-04-28T10:26:19.353Z,15.93
2023-04-28T10:28:48.533Z,16.16
2023-04-28T10:31:17.652Z,16.26
2023-04-28T10:33:45.929Z,16.21
2023-04-28T10:36:47.974Z,16.17
2023-04-28T10:39:16.853Z,15.12
2023-04-28T10:41:46.312Z,15.49
2023-04-28T10:44:45.525Z,15.67
2023-04-28T10:47:13.554Z,15.35
2023-04-28T10:50:09.948Z,14.81
2023-04-28T10:53:00.848Z,15.63
2023-04-28T10:55:36.289Z,15.28
2023-04-28T10:58:33.566Z,15.51
2023-04-28T11:01:28.385Z,15.77
2023-04-28T11:04:03.152Z,15.27
2023-04-28T11:06:34.267Z,15.08
2023-04-28T11:09:04.863Z,15.55
2023-04-28T11:11:35.157Z,15.91
2023-04-28T11:14:35.106Z,15.94
2023-04-28T11:17:04.692Z,15.92
2023-04-28T11:19:34.239Z,14.92
2023-04-28T11:22:03.650Z,15.17
2023-04-28T11:24:32.925Z,15.35
2023-04-28T11:27:02.371Z,15.58
2023-04-28T11:29:37.786Z,15.01
2023-04-28T11:32:06.302Z,15.25
2023-04-28T11:34:34.845Z,14.98
2023-04-28T11:37:03.208Z,15.09
2023-04-28T11:39:33.758Z,15.12
2023-04-28T11:42:02.746Z,15.12
2023-04-28T11:44:31.809Z,15.21
2023-04-28T11:47:01.777Z,15.12
2023-04-28T11:49:35.663Z,15.35
2023-04-28T11:52:06.609Z,15.40
2023-04-28T11:54:37.054Z,15.51
2023-04-28T11:57:05.692Z,15.29
2023-04-28T11:59:35.474Z,15.13
2023-04-28T12:02:04.966Z,15.09
2023-04-28T12:04:35.815Z,15.11
2023-04-28T12:07:06.463Z,15.10
2023-04-28T12:09:36.216Z,14.96
2023-04-28T12:12:06.090Z,14.90
2023-04-28T12:14:35.731Z,15.22
2023-04-28T12:17:04.146Z,15.09
2023-04-28T12:19:33.495Z,14.91
2023-04-28T12:22:03.261Z,15.16
2023-04-28T12:24:31.459Z,15.08
2023-04-28T12:27:21.871Z,15.79
2023-04-28T12:29:51.001Z,14.93
2023-04-28T12:32:20.462Z,15.42
2023-04-28T12:34:50.657Z,15.26
2023-04-28T12:37:18.622Z,15.63
2023-04-28T12:39:46.729Z,15.37
2023-04-28T12:42:15.074Z,15.73
2023-04-28T12:44:44.419Z,15.63
2023-04-28T12:47:12.491Z,15.27
2023-04-28T12:49:40.523Z,15.30
2023-04-28T12:52:08.622Z,15.21
2023-04-28T12:54:36.834Z,15.58
2023-04-28T12:57:05.810Z,15.82
2023-04-28T12:59:34.196Z,15.67
2023-04-28T13:02:03.994Z,15.69
2023-04-28T13:04:33.119Z,15.66
2023-04-28T13:07:01.686Z,15.19
2023-04-28T13:09:30.248Z,14.84
2023-04-28T13:11:58.662Z,15.07
2023-04-28T13:14:28.002Z,15.30
2023-04-28T13:16:56.169Z,15.42
2023-04-28T13:19:25.856Z,15.54
2023-04-28T13:21:53.738Z,15.17
2023-04-28T13:24:21.723Z,14.91
2023-04-28T13:26:49.897Z,15.05
2023-04-28T13:29:18.214Z,14.96
2023-04-28T13:31:46.468Z,14.55
2023-04-28T13:34:16.392Z,14.56
2023-04-28T13:36:48.148Z,14.74
2023-04-28T13:39:16.286Z,14.99
2023-04-28T13:41:44.248Z,15.23
2023-04-28T13:44:12.247Z,15.21
2023-04-28T13:46:40.432Z,15.32
2023-04-28T13:49:08.974Z,15.50
2023-04-28T13:51:36.818Z,15.25
2023-04-28T13:54:08.880Z,15.49
2023-04-28T13:56:37.448Z,15.64
2023-04-28T13:59:05.809Z,15.53
2023-04-28T14:01:34.808Z,15.68
2023-04-28T14:04:03.256Z,15.78
2023-04-28T14:06:32.965Z,15.73
2023-04-28T14:09:03.598Z,15.48
2023-04-28T14:11:32.999Z,15.50
2023-04-28T14:14:00.889Z,15.55
2023-04-28T14:16:29.111Z,15.54
2023-04-28T14:18:57.109Z,15.51
2023-04-28T14:21:25.167Z,15.33
2023-04-28T14:23:52.999Z,15.29
2023-04-28T14:26:21.099Z,15.54
2023-04-28T14:28:50.625Z,15.65
2023-04-28T14:31:18.992Z,15.74
2023-04-28T14:33:47.217Z,15.32
2023-04-28T14:36:15.428Z,15.34
2023-04-28T14:38:47.003Z,15.45
2023-04-28T14:41:15.381Z,15.23
2023-04-28T14:43:43.438Z,15.10
2023-04-28T14:46:14.602Z,15.09
2023-04-28T14:48:42.750Z,14.85
2023-04-28T14:51:10.888Z,15.00
2023-04-28T14:53:39.079Z,14.87
2023-04-28T14:56:17.728Z,14.87
2023-04-28T14:58:46.747Z,15.04
2023-04-28T15:01:17.514Z,15.04
2023-04-28T15:03:46.070Z,15.20
2023-04-28T15:06:14.323Z,15.15
2023-04-28T15:08:42.280Z,15.03
2023-04-28T15:11:10.398Z,15.10
2023-04-28T15:13:38.870Z,15.08
2023-04-28T15:16:08.301Z,15.10
2023-04-28T15:18:37.568Z,15.14
2023-04-28T15:21:05.787Z,15.03
2023-04-28T15:23:34.531Z,14.88
2023-04-28T15:26:02.564Z,14.78
2023-04-28T15:28:30.522Z,14.76
2023-04-28T15:31:00.897Z,14.81
2023-04-28T15:33:29.040Z,14.86
2023-04-28T15:35:58.538Z,14.81
2023-04-28T15:38:29.938Z,14.66
2023-04-28T15:40:58.257Z,14.64
2023-04-28T15:43:26.572Z,14.83
2023-04-28T15:45:54.577Z,14.83
2023-04-28T15:48:23.290Z,14.79
2023-04-28T15:50:51.221Z,14.73
2023-04-28T15:53:21.519Z,14.74
2023-04-28T15:55:49.543Z,14.75
2023-04-28T15:58:17.453Z,14.71
2023-04-28T16:00:46.702Z,14.78
2023-04-28T16:03:14.785Z,14.74
2023-04-28T16:05:42.848Z,14.63
2023-04-28T16:08:10.759Z,14.77
2023-04-28T16:10:42.329Z,14.70
2023-04-28T16:13:12.312Z,14.70
2023-04-28T16:15:41.807Z,14.74
2023-04-28T16:18:10.160Z,14.69
2023-04-28T16:20:38.120Z,14.72
2023-04-28T16:23:06.705Z,14.68
2023-04-28T16:25:35.459Z,14.63
2023-04-28T16:28:04.735Z,14.46
2023-04-28T16:30:33.074Z,14.48
2023-04-28T16:33:01.513Z,14.48
2023-04-28T16:35:29.370Z,14.47
2023-04-28T16:37:57.278Z,14.49
2023-04-28T16:40:25.181Z,14.47
2023-04-28T16:42:53.033Z,14.42
2023-04-28T16:45:23.658Z,14.42
2023-04-28T16:47:51.735Z,14.44
2023-04-28T16:50:19.656Z,14.40
2023-04-28T16:52:47.701Z,14.39
2023-04-28T16:55:16.681Z,14.33
2023-04-28T16:57:44.515Z,14.38
2023-04-28T17:00:14.061Z,14.34
2023-04-28T17:02:44.134Z,14.30
2023-04-28T17:05:15.683Z,14.29
2023-04-28T17:07:43.750Z,14.29
2023-04-28T17:10:12.129Z,14.24
2023-04-28T17:12:40.864Z,14.13
2023-04-28T17:15:09.704Z,13.42
2023-04-28T17:17:37.867Z,13.10
2023-04-28T17:20:08.378Z,12.85
2023-04-28T17:22:37.199Z,12.67
2023-04-28T17:25:06.222Z,12.63
2023-04-28T17:27:34.338Z,12.52
2023-04-28T17:30:02.289Z,12.40
2023-04-28T17:32:32.877Z,12.40
2023-04-28T17:35:01.251Z,12.34
2023-04-28T17:37:31.306Z,12.24
2023-04-28T17:40:00.630Z,12.16
2023-04-28T17:42:30.886Z,12.00
2023-04-28T17:44:59.229Z,11.96
2023-04-28T17:47:27.820Z,11.87
2023-04-28T17:49:55.871Z,11.81
2023-04-28T17:52:24.309Z,11.74
2023-04-28T17:54:53.967Z,11.62
2023-04-28T17:57:22.037Z,11.54
2023-04-28T17:59:50.967Z,11.42
2023-04-28T18:02:19.841Z,11.48
2023-04-28T18:04:48.181Z,11.54
2023-04-28T18:07:16.496Z,11.35
2023-04-28T18:09:44.529Z,11.32
2023-04-28T18:12:13.783Z,11.36
2023-04-28T18:14:44.286Z,11.31
2023-04-28T18:17:12.416Z,11.16
2023-04-28T18:19:43.143Z,11.23
2023-04-28T18:22:11.170Z,11.18
2023-04-28T18:24:39.194Z,11.18
2023-04-28T18:27:07.174Z,11.08
2023-04-28T18:29:39.827Z,11.10
2023-04-28T18:32:07.888Z,11.01
2023-04-28T18:34:36.729Z,10.98
2023-04-28T18:37:04.629Z,10.92
2023-04-28T18:39:32.628Z,10.98
2023-04-28T18:42:01.567Z,11.04
2023-04-28T18:44:29.613Z,10.99
2023-04-28T18:47:00.238Z,10.93
2023-04-28T18:49:28.374Z,10.91
2023-04-28T18:51:57.228Z,10.79
2023-04-28T18:54:26.816Z,10.76
2023-04-28T18:56:54.751Z,10.74
2023-04-28T18:59:23.160Z,10.74
2023-04-28T19:01:51.136Z,10.55
2023-04-28T19:04:21.082Z,10.63
2023-04-28T19:06:49.509Z,10.56
2023-04-28T19:09:17.636Z,10.49
2023-04-28T19:11:46.090Z,10.45
2023-04-28T19:14:14.177Z,10.38
2023-04-28T19:16:42.415Z,10.45
2023-04-28T19:19:11.398Z,10.35
2023-04-28T19:21:44.257Z,10.24
2023-04-28T19:24:12.786Z,9.91
2023-04-28T19:26:40.699Z,9.75
2023-04-28T19:29:08.604Z,9.73
2023-04-28T19:31:36.650Z,9.58
2023-04-28T19:34:04.563Z,9.46
2023-04-28T19:36:33.368Z,9.39
2023-04-28T19:39:03.131Z,9.23
2023-04-28T19:41:30.967Z,9.35
2023-04-28T19:43:58.882Z,9.26
2023-04-28T19:46:27.075Z,9.15
2023-04-28T19:48:55.341Z,9.12
2023-04-28T19:51:23.226Z,9.14
2023-04-28T19:53:52.463Z,9.07
2023-04-28T19:56:22.211Z,8.95
2023-04-28T19:58:50.101Z,8.75
2023-04-28T20:01:18.092Z,8.73
2023-04-28T20:03:46.062Z,8.64
2023-04-28T20:06:17.624Z,8.65
2023-04-28T20:08:45.891Z,8.48
2023-04-28T20:11:14.163Z,8.53
2023-04-28T20:13:43.367Z,8.47
2023-04-28T20:16:11.590Z,8.54
2023-04-28T20:18:39.667Z,8.55
2023-04-28T20:21:07.714Z,8.54
2023-04-28T20:23:36.730Z,8.48
2023-04-28T20:26:05.622Z,8.45
2023-04-28T20:28:33.509Z,8.42
2023-04-28T20:31:03.358Z,8.34
2023-04-28T20:33:32.421Z,8.35
2023-04-28T20:36:00.255Z,8.36
2023-04-28T20:38:30.118Z,8.29
2023-04-28T20:40:59.282Z,8.26
2023-04-28T20:43:27.303Z,8.22
2023-04-28T20:45:55.136Z,8.23
2023-04-28T20:48:24.370Z,8.21
2023-04-28T20:50:53.262Z,8.12
2023-04-28T20:53:21.165Z,8.13
2023-04-28T20:55:50.388Z,8.11
2023-04-28T20:58:18.343Z,8.04
2023-04-28T21:00:46.354Z,7.97
2023-04-28T21:03:15.857Z,8.00
2023-04-28T21:05:46.575Z,8.02
2023-04-28T21:08:14.609Z,7.86
2023-04-28T21:10:42.408Z,7.95
2023-04-28T21:13:10.645Z,7.90
2023-04-28T21:15:38.590Z,7.99
2023-04-28T21:18:06.535Z,8.03
2023-04-28T21:20:34.503Z,8.11
2023-04-28T21:23:04.238Z,8.16
2023-04-28T21:25:32.112Z,8.19
2023-04-28T21:28:01.729Z,8.13
2023-04-28T21:30:30.074Z,8.02
2023-04-28T21:32:57.961Z,7.99
2023-04-28T21:35:26.158Z,7.91
2023-04-28T21:37:53.972Z,7.96
2023-04-28T21:40:23.399Z,7.90
2023-04-28T21:42:51.647Z,7.89
2023-04-28T21:45:19.499Z,7.84
2023-04-28T21:47:47.389Z,7.87
2023-04-28T21:50:15.405Z,7.70
2023-04-28T21:52:43.227Z,7.77
2023-04-28T21:55:11.413Z,7.70
2023-04-28T21:57:40.716Z,7.67
2023-04-28T22:00:12.718Z,7.68
2023-04-28T22:02:43.819Z,7.67
2023-04-28T22:05:11.957Z,7.67
2023-04-28T22:07:39.798Z,7.69
2023-04-28T22:10:09.205Z,7.62
2023-04-28T22:12:37.218Z,7.58
2023-04-28T22:15:07.758Z,7.63
2023-04-28T22:17:35.669Z,7.68
2023-04-28T22:20:03.743Z,7.62
2023-04-28T22:22:31.694Z,7.49
2023-04-28T22:25:00.272Z,7.39
2023-04-28T22:27:28.347Z,7.44
2023-04-28T22:29:56.195Z,7.52
2023-04-28T22:32:25.561Z,7.45
2023-04-28T22:34:53.739Z,7.38
2023-04-28T22:37:21.761Z,7.36
2023-04-28T22:39:49.868Z,7.28
2023-04-28T22:42:18.095Z,7.26
2023-04-28T22:44:45.926Z,7.29
2023-04-28T22:47:13.764Z,7.28
2023-04-28T22:49:43.460Z,7.28
2023-04-28T22:52:11.712Z,7.32
2023-04-28T22:54:39.764Z,7.27
2023-04-28T22:57:07.697Z,7.26
2023-04-28T22:59:35.568Z,7.26
2023-04-28T23:02:03.621Z,7.23
2023-04-28T23:04:31.745Z,7.22
2023-04-28T23:07:01.089Z,7.29
2023-04-28T23:09:31.609Z,7.33
2023-04-28T23:11:59.918Z,7.36
2023-04-28T23:14:27.738Z,7.36
2023-04-28T23:16:55.624Z,7.41
2023-04-28T23:19:23.505Z,7.45
2023-04-28T23:21:51.428Z,7.50
2023-04-28T23:24:20.744Z,7.60
2023-04-28T23:26:48.843Z,7.61
2023-04-28T23:29:16.709Z,7.67
2023-04-28T23:31:52.128Z,7.71
2023-04-28T23:34:20.965Z,7.82
2023-04-28T23:36:48.902Z,7.70
2023-04-28T23:39:16.838Z,7.71
2023-04-28T23:41:46.083Z,7.59
2023-04-28T23:44:14.013Z,7.61
2023-04-28T23:46:41.951Z,7.62
2023-04-28T23:49:10.266Z,7.67
2023-04-28T23:51:38.167Z,7.60
2023-04-28T23:54:06.122Z,7.59
2023-04-28T23:56:33.990Z,7.66
2023-04-28T23:59:03.280Z,7.73
